sensor_id;sensor_type;location;lat;lon;timestamp;temperature;humidity
2190;DHT22;1101;51.056;7.262;2022-10-16T00:01:24;13.00;99.90
2190;DHT22;1101;51.056;7.262;2022-10-16T00:03:52;13.00;99.90
2190;DHT22;1101;51.056;7.262;2022-10-16T00:06:21;13.00;99.90
2190;DHT22;1101;51.056;7.262;2022-10-16T00:08:50;13.00;99.90
2190;DHT22;1101;51.056;7.262;2022-10-16T00:11:21;12.90;99.90
2190;DHT22;1101;51.056;7.262;2022-10-16T00:13:51;12.90;99.90
2190;DHT22;1101;51.056;7.262;2022-10-16T00:16:19;12.90;99.90
2190;DHT22;1101;51.056;7.262;2022-10-16T00:18:47;12.90;99.90
2190;DHT22;1101;51.056;7.262;2022-10-16T00:21:16;12.90;99.90
2190;DHT22;1101;51.056;7.262;2022-10-16T00:23:44;12.90;99.90
2190;DHT22;1101;51.056;7.262;2022-10-16T00:26:17;12.90;99.90
2190;DHT22;1101;51.056;7.262;2022-10-16T00:28:47;12.90;99.90
2190;DHT22;1101;51.056;7.262;2022-10-16T00:31:15;12.90;99.90
2190;DHT22;1101;51.056;7.262;2022-10-16T00:33:43;12.90;99.90
2190;DHT22;1101;51.056;7.262;2022-10-16T00:36:13;12.90;99.90
2190;DHT22;1101;51.056;7.262;2022-10-16T00:38:41;12.90;99.90
2190;DHT22;1101;51.056;7.262;2022-10-16T00:41:13;12.90;99.90
2190;DHT22;1101;51.056;7.262;2022-10-16T00:43:42;12.90;99.90
2190;DHT22;1101;51.056;7.262;2022-10-16T00:46:16;12.90;99.90
2190;DHT22;1101;51.056;7.262;2022-10-16T00:48:48;12.80;99.90
2190;DHT22;1101;51.056;7.262;2022-10-16T00:51:20;12.90;99.90
2190;DHT22;1101;51.056;7.262;2022-10-16T00:53:49;12.80;99.90
2190;DHT22;1101;51.056;7.262;2022-10-16T00:56:18;12.80;99.90
2190;DHT22;1101;51.056;7.262;2022-10-16T00:58:45;12.80;99.90
2190;DHT22;1101;51.056;7.262;2022-10-16T01:01:15;12.80;99.90
2190;DHT22;1101;51.056;7.262;2022-10-16T01:03:43;12.80;99.90
2190;DHT22;1101;51.056;7.262;2022-10-16T01:06:31;12.80;99.90
2190;DHT22;1101;51.056;7.262;2022-10-16T01:09:16;12.70;99.90
2190;DHT22;1101;51.056;7.262;2022-10-16T01:11:51;12.70;99.90
2190;DHT22;1101;51.056;7.262;2022-10-16T01:14:26;12.70;99.90
2190;DHT22;1101;51.056;7.262;2022-10-16T01:17:04;12.70;99.90
2190;DHT22;1101;51.056;7.262;2022-10-16T01:19:44;12.70;99.90
2190;DHT22;1101;51.056;7.262;2022-10-16T01:22:18;12.60;99.90
2190;DHT22;1101;51.056;7.262;2022-10-16T01:24:49;12.60;99.90
2190;DHT22;1101;51.056;7.262;2022-10-16T01:27:21;12.60;99.90
2190;DHT22;1101;51.056;7.262;2022-10-16T01:29:54;12.60;99.90
2190;DHT22;1101;51.056;7.262;2022-10-16T01:32:30;12.50;99.90
2190;DHT22;1101;51.056;7.262;2022-10-16T01:35:01;12.60;99.90
2190;DHT22;1101;51.056;7.262;2022-10-16T01:37:34;12.50;99.90
2190;DHT22;1101;51.056;7.262;2022-10-16T01:40:06;12.50;99.90
2190;DHT22;1101;51.056;7.262;2022-10-16T01:42:38;12.50;99.90
2190;DHT22;1101;51.056;7.262;2022-10-16T01:45:07;12.50;99.90
2190;DHT22;1101;51.056;7.262;2022-10-16T01:47:38;12.50;99.90
2190;DHT22;1101;51.056;7.262;2022-10-16T01:50:07;12.50;99.90
2190;DHT22;1101;51.056;7.262;2022-10-16T01:52:39;12.50;99.90
2190;DHT22;1101;51.056;7.262;2022-10-16T01:55:09;12.40;99.90
2190;DHT22;1101;51.056;7.262;2022-10-16T01:57:43;12.40;99.90
2190;DHT22;1101;51.056;7.262;2022-10-16T02:00:14;12.40;99.90
2190;DHT22;1101;51.056;7.262;2022-10-16T02:02:45;12.40;99.90
2190;DHT22;1101;51.056;7.262;2022-10-16T02:05:18;12.40;99.90
2190;DHT22;1101;51.056;7.262;2022-10-16T02:07:47;12.40;99.90
2190;DHT22;1101;51.056;7.262;2022-10-16T02:10:16;12.40;99.90
2190;DHT22;1101;51.056;7.262;2022-10-16T02:12:49;12.40;99.90
2190;DHT22;1101;51.056;7.262;2022-10-16T02:15:18;12.40;99.90
2190;DHT22;1101;51.056;7.262;2022-10-16T02:17:45;12.40;99.90
2190;DHT22;1101;51.056;7.262;2022-10-16T02:20:13;12.40;99.90
2190;DHT22;1101;51.056;7.262;2022-10-16T02:22:42;12.40;99.90
2190;DHT22;1101;51.056;7.262;2022-10-16T02:25:15;12.40;99.90
2190;DHT22;1101;51.056;7.262;2022-10-16T02:27:51;12.40;99.90
2190;DHT22;1101;51.056;7.262;2022-10-16T02:30:24;12.40;99.90
2190;DHT22;1101;51.056;7.262;2022-10-16T02:32:54;12.40;99.90
2190;DHT22;1101;51.056;7.262;2022-10-16T02:35:23;12.40;99.90
2190;DHT22;1101;51.056;7.262;2022-10-16T02:37:52;12.40;99.90
2190;DHT22;1101;51.056;7.262;2022-10-16T02:40:20;12.40;99.90
2190;DHT22;1101;51.056;7.262;2022-10-16T02:42:53;12.40;99.90
2190;DHT22;1101;51.056;7.262;2022-10-16T02:45:22;12.40;99.90
2190;DHT22;1101;51.056;7.262;2022-10-16T02:47:50;12.40;99.90
2190;DHT22;1101;51.056;7.262;2022-10-16T02:50:18;12.40;99.90
2190;DHT22;1101;51.056;7.262;2022-10-16T02:52:45;12.40;99.90
2190;DHT22;1101;51.056;7.262;2022-10-16T02:55:13;12.40;99.90
2190;DHT22;1101;51.056;7.262;2022-10-16T02:57:41;12.40;99.90
2190;DHT22;1101;51.056;7.262;2022-10-16T03:00:13;12.50;99.90
2190;DHT22;1101;51.056;7.262;2022-10-16T03:02:41;12.50;99.90
2190;DHT22;1101;51.056;7.262;2022-10-16T03:05:09;12.50;99.90
2190;DHT22;1101;51.056;7.262;2022-10-16T03:07:37;12.50;99.90
2190;DHT22;1101;51.056;7.262;2022-10-16T03:10:06;12.50;99.90
2190;DHT22;1101;51.056;7.262;2022-10-16T03:12:33;12.50;99.90
2190;DHT22;1101;51.056;7.262;2022-10-16T03:15:01;12.60;99.90
2190;DHT22;1101;51.056;7.262;2022-10-16T03:17:32;12.60;99.90
2190;DHT22;1101;51.056;7.262;2022-10-16T03:19:59;12.60;99.90
2190;DHT22;1101;51.056;7.262;2022-10-16T03:22:27;12.60;99.90
2190;DHT22;1101;51.056;7.262;2022-10-16T03:24:55;12.60;99.90
2190;DHT22;1101;51.056;7.262;2022-10-16T03:27:23;12.60;99.90
2190;DHT22;1101;51.056;7.262;2022-10-16T03:29:51;12.70;99.90
2190;DHT22;1101;51.056;7.262;2022-10-16T03:32:18;12.50;99.90
2190;DHT22;1101;51.056;7.262;2022-10-16T03:34:47;12.60;99.90
2190;DHT22;1101;51.056;7.262;2022-10-16T03:37:15;12.50;99.90
2190;DHT22;1101;51.056;7.262;2022-10-16T03:39:43;12.50;99.90
2190;DHT22;1101;51.056;7.262;2022-10-16T03:42:11;12.50;99.90
2190;DHT22;1101;51.056;7.262;2022-10-16T03:44:39;12.50;99.90
2190;DHT22;1101;51.056;7.262;2022-10-16T03:47:06;12.50;99.90
2190;DHT22;1101;51.056;7.262;2022-10-16T03:49:34;12.50;99.90
2190;DHT22;1101;51.056;7.262;2022-10-16T03:52:03;12.50;99.90
2190;DHT22;1101;51.056;7.262;2022-10-16T03:54:31;12.40;99.90
2190;DHT22;1101;51.056;7.262;2022-10-16T03:56:59;12.40;99.90
2190;DHT22;1101;51.056;7.262;2022-10-16T03:59:27;12.40;99.90
2190;DHT22;1101;51.056;7.262;2022-10-16T04:01:54;12.40;99.90
2190;DHT22;1101;51.056;7.262;2022-10-16T04:04:22;12.40;99.90
2190;DHT22;1101;51.056;7.262;2022-10-16T04:06:51;12.40;99.90
2190;DHT22;1101;51.056;7.262;2022-10-16T04:09:20;12.40;99.90
2190;DHT22;1101;51.056;7.262;2022-10-16T04:11:48;12.40;99.90
2190;DHT22;1101;51.056;7.262;2022-10-16T04:14:15;12.40;99.90
2190;DHT22;1101;51.056;7.262;2022-10-16T04:16:43;12.40;99.90
2190;DHT22;1101;51.056;7.262;2022-10-16T04:19:11;12.40;99.90
2190;DHT22;1101;51.056;7.262;2022-10-16T04:21:39;12.40;99.90
2190;DHT22;1101;51.056;7.262;2022-10-16T04:24:07;12.40;99.90
2190;DHT22;1101;51.056;7.262;2022-10-16T04:26:36;12.40;99.90
2190;DHT22;1101;51.056;7.262;2022-10-16T04:29:04;12.40;99.90
2190;DHT22;1101;51.056;7.262;2022-10-16T04:31:32;12.40;99.90
2190;DHT22;1101;51.056;7.262;2022-10-16T04:34:00;12.40;99.90
2190;DHT22;1101;51.056;7.262;2022-10-16T04:36:28;12.40;99.90
2190;DHT22;1101;51.056;7.262;2022-10-16T04:38:55;12.40;99.90
2190;DHT22;1101;51.056;7.262;2022-10-16T04:41:23;12.50;99.90
2190;DHT22;1101;51.056;7.262;2022-10-16T04:43:52;12.40;99.90
2190;DHT22;1101;51.056;7.262;2022-10-16T04:46:20;12.40;99.90
2190;DHT22;1101;51.056;7.262;2022-10-16T04:48:47;12.50;99.90
2190;DHT22;1101;51.056;7.262;2022-10-16T04:51:15;12.50;99.90
2190;DHT22;1101;51.056;7.262;2022-10-16T04:53:43;12.50;99.90
2190;DHT22;1101;51.056;7.262;2022-10-16T04:56:10;12.50;99.90
2190;DHT22;1101;51.056;7.262;2022-10-16T04:58:38;12.50;99.90
2190;DHT22;1101;51.056;7.262;2022-10-16T05:01:07;12.50;99.90
2190;DHT22;1101;51.056;7.262;2022-10-16T05:03:35;12.50;99.90
2190;DHT22;1101;51.056;7.262;2022-10-16T05:06:05;12.50;99.90
2190;DHT22;1101;51.056;7.262;2022-10-16T05:08:33;12.50;99.90
2190;DHT22;1101;51.056;7.262;2022-10-16T05:11:01;12.50;99.90
2190;DHT22;1101;51.056;7.262;2022-10-16T05:13:28;12.40;99.90
2190;DHT22;1101;51.056;7.262;2022-10-16T05:15:56;12.40;99.90
2190;DHT22;1101;51.056;7.262;2022-10-16T05:18:25;12.40;99.90
2190;DHT22;1101;51.056;7.262;2022-10-16T05:20:53;12.40;99.90
2190;DHT22;1101;51.056;7.262;2022-10-16T05:23:21;12.40;99.90
2190;DHT22;1101;51.056;7.262;2022-10-16T05:25:53;12.40;99.90
2190;DHT22;1101;51.056;7.262;2022-10-16T05:28:21;12.40;99.90
2190;DHT22;1101;51.056;7.262;2022-10-16T05:30:48;12.40;99.90
2190;DHT22;1101;51.056;7.262;2022-10-16T05:33:16;12.40;99.90
2190;DHT22;1101;51.056;7.262;2022-10-16T05:35:45;12.40;99.90
2190;DHT22;1101;51.056;7.262;2022-10-16T05:38:13;12.30;99.90
2190;DHT22;1101;51.056;7.262;2022-10-16T05:40:41;12.40;99.90
2190;DHT22;1101;51.056;7.262;2022-10-16T05:43:08;12.30;99.90
2190;DHT22;1101;51.056;7.262;2022-10-16T05:45:36;12.40;99.90
2190;DHT22;1101;51.056;7.262;2022-10-16T05:48:04;12.40;99.90
2190;DHT22;1101;51.056;7.262;2022-10-16T05:50:33;12.40;99.90
2190;DHT22;1101;51.056;7.262;2022-10-16T05:53:02;12.40;99.90
2190;DHT22;1101;51.056;7.262;2022-10-16T05:55:29;12.40;99.90
2190;DHT22;1101;51.056;7.262;2022-10-16T05:57:57;12.40;99.90
2190;DHT22;1101;51.056;7.262;2022-10-16T06:00:25;12.40;99.90
2190;DHT22;1101;51.056;7.262;2022-10-16T06:02:53;12.40;99.90
2190;DHT22;1101;51.056;7.262;2022-10-16T06:05:21;12.40;99.90
2190;DHT22;1101;51.056;7.262;2022-10-16T06:07:49;12.40;99.90
2190;DHT22;1101;51.056;7.262;2022-10-16T06:10:18;12.40;99.90
2190;DHT22;1101;51.056;7.262;2022-10-16T06:12:45;12.40;99.90
2190;DHT22;1101;51.056;7.262;2022-10-16T06:15:13;12.40;99.90
2190;DHT22;1101;51.056;7.262;2022-10-16T06:17:41;12.40;99.90
2190;DHT22;1101;51.056;7.262;2022-10-16T06:20:09;12.40;99.90
2190;DHT22;1101;51.056;7.262;2022-10-16T06:22:36;12.40;99.90
2190;DHT22;1101;51.056;7.262;2022-10-16T06:25:05;12.40;99.90
2190;DHT22;1101;51.056;7.262;2022-10-16T06:27:34;12.40;99.90
2190;DHT22;1101;51.056;7.262;2022-10-16T06:30:02;12.40;99.90
2190;DHT22;1101;51.056;7.262;2022-10-16T06:32:30;12.40;99.90
2190;DHT22;1101;51.056;7.262;2022-10-16T06:34:57;12.40;99.90
2190;DHT22;1101;51.056;7.262;2022-10-16T06:37:26;12.40;99.90
2190;DHT22;1101;51.056;7.262;2022-10-16T06:39:54;12.40;99.90
2190;DHT22;1101;51.056;7.262;2022-10-16T06:42:22;12.40;99.90
2190;DHT22;1101;51.056;7.262;2022-10-16T06:44:52;12.40;99.90
2190;DHT22;1101;51.056;7.262;2022-10-16T06:47:19;12.40;99.90
2190;DHT22;1101;51.056;7.262;2022-10-16T06:49:47;12.40;99.90
2190;DHT22;1101;51.056;7.262;2022-10-16T06:52:20;12.40;99.90
2190;DHT22;1101;51.056;7.262;2022-10-16T06:54:47;12.40;99.90
2190;DHT22;1101;51.056;7.262;2022-10-16T06:57:15;12.50;99.90
2190;DHT22;1101;51.056;7.262;2022-10-16T06:59:43;12.50;99.90
2190;DHT22;1101;51.056;7.262;2022-10-16T07:02:14;12.60;99.90
2190;DHT22;1101;51.056;7.262;2022-10-16T07:04:41;12.60;99.90
2190;DHT22;1101;51.056;7.262;2022-10-16T07:07:09;12.60;99.90
2190;DHT22;1101;51.056;7.262;2022-10-16T07:09:37;12.60;99.90
2190;DHT22;1101;51.056;7.262;2022-10-16T07:12:05;12.70;99.90
2190;DHT22;1101;51.056;7.262;2022-10-16T07:14:32;12.70;99.90
2190;DHT22;1101;51.056;7.262;2022-10-16T07:17:00;12.80;99.90
2190;DHT22;1101;51.056;7.262;2022-10-16T07:19:29;12.80;99.90
2190;DHT22;1101;51.056;7.262;2022-10-16T07:22:00;12.80;99.90
2190;DHT22;1101;51.056;7.262;2022-10-16T07:24:28;12.90;99.90
2190;DHT22;1101;51.056;7.262;2022-10-16T07:26:55;12.90;99.90
2190;DHT22;1101;51.056;7.262;2022-10-16T07:29:23;13.00;99.90
2190;DHT22;1101;51.056;7.262;2022-10-16T07:31:51;13.00;99.90
2190;DHT22;1101;51.056;7.262;2022-10-16T07:34:19;13.10;99.90
2190;DHT22;1101;51.056;7.262;2022-10-16T07:36:50;13.10;99.90
2190;DHT22;1101;51.056;7.262;2022-10-16T07:39:18;13.20;99.90
2190;DHT22;1101;51.056;7.262;2022-10-16T07:41:45;13.20;99.90
2190;DHT22;1101;51.056;7.262;2022-10-16T07:44:13;13.20;99.90
2190;DHT22;1101;51.056;7.262;2022-10-16T07:46:41;13.30;99.90
2190;DHT22;1101;51.056;7.262;2022-10-16T07:49:08;13.30;99.90
2190;DHT22;1101;51.056;7.262;2022-10-16T07:51:36;13.30;99.90
2190;DHT22;1101;51.056;7.262;2022-10-16T07:54:08;13.40;99.90
2190;DHT22;1101;51.056;7.262;2022-10-16T07:56:35;13.40;99.90
2190;DHT22;1101;51.056;7.262;2022-10-16T07:59:08;13.40;99.90
2190;DHT22;1101;51.056;7.262;2022-10-16T08:01:36;13.50;99.90
2190;DHT22;1101;51.056;7.262;2022-10-16T08:04:05;13.50;99.90
2190;DHT22;1101;51.056;7.262;2022-10-16T08:06:35;13.50;99.90
2190;DHT22;1101;51.056;7.262;2022-10-16T08:09:03;13.60;99.90
2190;DHT22;1101;51.056;7.262;2022-10-16T08:11:33;13.60;99.90
2190;DHT22;1101;51.056;7.262;2022-10-16T08:14:01;13.70;99.90
2190;DHT22;1101;51.056;7.262;2022-10-16T08:16:28;13.70;99.90
2190;DHT22;1101;51.056;7.262;2022-10-16T08:18:56;13.80;99.90
2190;DHT22;1101;51.056;7.262;2022-10-16T08:21:24;13.80;99.90
2190;DHT22;1101;51.056;7.262;2022-10-16T08:23:53;13.80;99.90
2190;DHT22;1101;51.056;7.262;2022-10-16T08:26:25;13.90;99.90
2190;DHT22;1101;51.056;7.262;2022-10-16T08:28:55;13.90;99.90
2190;DHT22;1101;51.056;7.262;2022-10-16T08:31:23;14.00;99.90
2190;DHT22;1101;51.056;7.262;2022-10-16T08:33:51;14.10;99.90
2190;DHT22;1101;51.056;7.262;2022-10-16T08:36:19;14.10;99.90
2190;DHT22;1101;51.056;7.262;2022-10-16T08:38:48;14.20;99.90
2190;DHT22;1101;51.056;7.262;2022-10-16T08:41:53;14.30;99.90
2190;DHT22;1101;51.056;7.262;2022-10-16T08:44:53;14.40;99.90
2190;DHT22;1101;51.056;7.262;2022-10-16T08:47:35;14.40;99.90
2190;DHT22;1101;51.056;7.262;2022-10-16T08:50:10;14.50;99.90
2190;DHT22;1101;51.056;7.262;2022-10-16T08:52:41;14.50;99.90
2190;DHT22;1101;51.056;7.262;2022-10-16T08:55:20;14.60;99.90
2190;DHT22;1101;51.056;7.262;2022-10-16T08:57:50;14.60;99.90
2190;DHT22;1101;51.056;7.262;2022-10-16T09:00:20;14.70;99.90
2190;DHT22;1101;51.056;7.262;2022-10-16T09:02:52;14.80;99.90
2190;DHT22;1101;51.056;7.262;2022-10-16T09:05:27;14.80;99.90
2190;DHT22;1101;51.056;7.262;2022-10-16T09:08:03;14.80;99.90
2190;DHT22;1101;51.056;7.262;2022-10-16T09:10:43;14.90;99.90
2190;DHT22;1101;51.056;7.262;2022-10-16T09:13:18;14.90;99.90
2190;DHT22;1101;51.056;7.262;2022-10-16T09:15:54;15.00;99.90
2190;DHT22;1101;51.056;7.262;2022-10-16T09:18:27;15.10;99.90
2190;DHT22;1101;51.056;7.262;2022-10-16T09:21:02;15.10;99.90
2190;DHT22;1101;51.056;7.262;2022-10-16T09:23:35;15.10;99.90
2190;DHT22;1101;51.056;7.262;2022-10-16T09:26:05;15.20;99.90
2190;DHT22;1101;51.056;7.262;2022-10-16T09:28:36;15.20;99.90
2190;DHT22;1101;51.056;7.262;2022-10-16T09:31:10;15.30;99.90
2190;DHT22;1101;51.056;7.262;2022-10-16T09:33:41;15.30;99.90
2190;DHT22;1101;51.056;7.262;2022-10-16T09:36:10;15.40;99.90
2190;DHT22;1101;51.056;7.262;2022-10-16T09:38:38;15.40;99.90
2190;DHT22;1101;51.056;7.262;2022-10-16T09:41:14;15.40;99.90
2190;DHT22;1101;51.056;7.262;2022-10-16T09:43:48;15.40;99.90
2190;DHT22;1101;51.056;7.262;2022-10-16T09:46:25;15.50;99.90
2190;DHT22;1101;51.056;7.262;2022-10-16T09:48:56;15.50;99.90
2190;DHT22;1101;51.056;7.262;2022-10-16T09:51:26;15.60;99.90
2190;DHT22;1101;51.056;7.262;2022-10-16T09:53:56;15.70;99.90
2190;DHT22;1101;51.056;7.262;2022-10-16T09:56:26;15.70;99.90
2190;DHT22;1101;51.056;7.262;2022-10-16T09:58:56;15.60;99.90
2190;DHT22;1101;51.056;7.262;2022-10-16T10:01:30;15.70;99.90
2190;DHT22;1101;51.056;7.262;2022-10-16T10:03:59;15.70;99.90
2190;DHT22;1101;51.056;7.262;2022-10-16T10:06:30;15.70;99.90
2190;DHT22;1101;51.056;7.262;2022-10-16T10:09:04;15.80;99.90
2190;DHT22;1101;51.056;7.262;2022-10-16T10:11:40;15.90;99.90
2190;DHT22;1101;51.056;7.262;2022-10-16T10:14:17;15.90;99.90
2190;DHT22;1101;51.056;7.262;2022-10-16T10:16:47;16.00;99.90
2190;DHT22;1101;51.056;7.262;2022-10-16T10:19:16;16.10;99.90
2190;DHT22;1101;51.056;7.262;2022-10-16T10:21:44;16.20;99.90
2190;DHT22;1101;51.056;7.262;2022-10-16T10:24:13;16.20;99.90
2190;DHT22;1101;51.056;7.262;2022-10-16T10:26:47;16.30;99.90
2190;DHT22;1101;51.056;7.262;2022-10-16T10:29:27;16.40;99.90
2190;DHT22;1101;51.056;7.262;2022-10-16T10:32:08;16.40;99.90
2190;DHT22;1101;51.056;7.262;2022-10-16T10:34:52;16.50;99.90
2190;DHT22;1101;51.056;7.262;2022-10-16T10:37:34;16.50;99.90
2190;DHT22;1101;51.056;7.262;2022-10-16T10:40:15;16.50;99.90
2190;DHT22;1101;51.056;7.262;2022-10-16T10:42:49;16.60;99.90
2190;DHT22;1101;51.056;7.262;2022-10-16T10:45:26;16.70;99.90
2190;DHT22;1101;51.056;7.262;2022-10-16T10:48:10;16.70;99.90
2190;DHT22;1101;51.056;7.262;2022-10-16T10:50:44;16.60;99.90
2190;DHT22;1101;51.056;7.262;2022-10-16T10:53:31;16.60;99.90
2190;DHT22;1101;51.056;7.262;2022-10-16T10:56:17;16.50;99.90
2190;DHT22;1101;51.056;7.262;2022-10-16T10:59:09;16.50;99.90
2190;DHT22;1101;51.056;7.262;2022-10-16T11:01:50;16.50;99.90
2190;DHT22;1101;51.056;7.262;2022-10-16T11:07:19;16.50;99.90
2190;DHT22;1101;51.056;7.262;2022-10-16T11:09:51;16.60;99.90
2190;DHT22;1101;51.056;7.262;2022-10-16T11:12:22;16.70;99.90
2190;DHT22;1101;51.056;7.262;2022-10-16T11:14:58;16.70;99.90
2190;DHT22;1101;51.056;7.262;2022-10-16T11:17:31;16.80;99.90
2190;DHT22;1101;51.056;7.262;2022-10-16T11:20:11;16.80;99.90
2190;DHT22;1101;51.056;7.262;2022-10-16T11:22:43;16.90;99.90
2190;DHT22;1101;51.056;7.262;2022-10-16T11:25:16;16.90;99.90
2190;DHT22;1101;51.056;7.262;2022-10-16T11:27:50;17.00;99.90
2190;DHT22;1101;51.056;7.262;2022-10-16T11:30:20;17.00;99.90
2190;DHT22;1101;51.056;7.262;2022-10-16T11:33:04;17.10;99.90
2190;DHT22;1101;51.056;7.262;2022-10-16T11:35:43;17.10;99.90
2190;DHT22;1101;51.056;7.262;2022-10-16T11:38:15;17.10;99.90
2190;DHT22;1101;51.056;7.262;2022-10-16T11:40:49;17.10;99.90
2190;DHT22;1101;51.056;7.262;2022-10-16T11:43:23;17.10;99.90
2190;DHT22;1101;51.056;7.262;2022-10-16T11:45:54;17.10;99.90
2190;DHT22;1101;51.056;7.262;2022-10-16T11:48:27;17.10;99.90
2190;DHT22;1101;51.056;7.262;2022-10-16T11:51:05;17.10;99.90
2190;DHT22;1101;51.056;7.262;2022-10-16T11:53:42;17.10;99.90
2190;DHT22;1101;51.056;7.262;2022-10-16T11:56:13;17.10;99.90
2190;DHT22;1101;51.056;7.262;2022-10-16T11:58:52;17.10;99.90
2190;DHT22;1101;51.056;7.262;2022-10-16T12:01:25;17.20;99.90
2190;DHT22;1101;51.056;7.262;2022-10-16T12:04:04;17.20;99.90
2190;DHT22;1101;51.056;7.262;2022-10-16T12:06:38;17.20;99.90
2190;DHT22;1101;51.056;7.262;2022-10-16T12:09:13;17.20;99.90
2190;DHT22;1101;51.056;7.262;2022-10-16T12:11:42;17.20;99.90
2190;DHT22;1101;51.056;7.262;2022-10-16T12:14:32;17.30;99.90
2190;DHT22;1101;51.056;7.262;2022-10-16T12:17:26;17.20;99.90
2190;DHT22;1101;51.056;7.262;2022-10-16T12:19:58;17.30;99.90
2190;DHT22;1101;51.056;7.262;2022-10-16T12:22:29;17.20;99.90
2190;DHT22;1101;51.056;7.262;2022-10-16T12:24:58;17.30;99.90
2190;DHT22;1101;51.056;7.262;2022-10-16T12:27:29;17.30;99.90
2190;DHT22;1101;51.056;7.262;2022-10-16T12:29:59;17.30;99.90
2190;DHT22;1101;51.056;7.262;2022-10-16T12:32:30;17.40;99.90
2190;DHT22;1101;51.056;7.262;2022-10-16T12:35:20;17.50;99.90
2190;DHT22;1101;51.056;7.262;2022-10-16T12:37:50;17.50;99.90
2190;DHT22;1101;51.056;7.262;2022-10-16T12:40:27;17.60;99.90
2190;DHT22;1101;51.056;7.262;2022-10-16T12:42:55;17.60;99.90
2190;DHT22;1101;51.056;7.262;2022-10-16T12:45:29;17.60;99.90
2190;DHT22;1101;51.056;7.262;2022-10-16T12:47:58;17.60;99.90
2190;DHT22;1101;51.056;7.262;2022-10-16T12:50:33;17.60;99.90
2190;DHT22;1101;51.056;7.262;2022-10-16T12:53:16;17.60;99.90
2190;DHT22;1101;51.056;7.262;2022-10-16T12:55:52;17.60;99.90
2190;DHT22;1101;51.056;7.262;2022-10-16T12:58:33;17.60;99.90
2190;DHT22;1101;51.056;7.262;2022-10-16T13:01:17;17.60;99.90
2190;DHT22;1101;51.056;7.262;2022-10-16T13:03:58;17.60;99.90
2190;DHT22;1101;51.056;7.262;2022-10-16T13:06:34;17.60;99.90
2190;DHT22;1101;51.056;7.262;2022-10-16T13:12:11;17.80;99.90
2190;DHT22;1101;51.056;7.262;2022-10-16T13:15:01;17.80;99.90
2190;DHT22;1101;51.056;7.262;2022-10-16T13:17:37;17.80;99.90
2190;DHT22;1101;51.056;7.262;2022-10-16T13:20:16;17.80;99.90
2190;DHT22;1101;51.056;7.262;2022-10-16T13:22:54;17.70;99.90
2190;DHT22;1101;51.056;7.262;2022-10-16T13:25:31;17.70;99.90
2190;DHT22;1101;51.056;7.262;2022-10-16T13:28:05;17.60;99.90
2190;DHT22;1101;51.056;7.262;2022-10-16T13:30:38;17.70;99.90
2190;DHT22;1101;51.056;7.262;2022-10-16T13:33:13;17.70;99.90
2190;DHT22;1101;51.056;7.262;2022-10-16T13:35:49;17.60;99.90
2190;DHT22;1101;51.056;7.262;2022-10-16T13:38:19;17.60;99.90
2190;DHT22;1101;51.056;7.262;2022-10-16T13:40:54;17.60;99.90
2190;DHT22;1101;51.056;7.262;2022-10-16T13:43:25;17.60;99.90
2190;DHT22;1101;51.056;7.262;2022-10-16T13:45:58;17.60;99.90
2190;DHT22;1101;51.056;7.262;2022-10-16T13:48:26;17.50;99.90
2190;DHT22;1101;51.056;7.262;2022-10-16T13:51:05;17.50;99.90
2190;DHT22;1101;51.056;7.262;2022-10-16T13:53:34;17.50;99.90
2190;DHT22;1101;51.056;7.262;2022-10-16T13:56:06;17.50;99.90
2190;DHT22;1101;51.056;7.262;2022-10-16T13:58:34;17.50;99.90
2190;DHT22;1101;51.056;7.262;2022-10-16T14:01:04;17.40;99.90
2190;DHT22;1101;51.056;7.262;2022-10-16T14:03:34;17.50;99.90
2190;DHT22;1101;51.056;7.262;2022-10-16T14:06:04;17.40;99.90
2190;DHT22;1101;51.056;7.262;2022-10-16T14:08:35;17.50;99.90
2190;DHT22;1101;51.056;7.262;2022-10-16T14:11:04;17.50;99.90
2190;DHT22;1101;51.056;7.262;2022-10-16T14:13:36;17.60;99.90
2190;DHT22;1101;51.056;7.262;2022-10-16T14:16:07;17.70;99.90
2190;DHT22;1101;51.056;7.262;2022-10-16T14:18:37;17.70;99.90
2190;DHT22;1101;51.056;7.262;2022-10-16T14:21:11;17.70;99.90
2190;DHT22;1101;51.056;7.262;2022-10-16T14:23:41;17.70;99.90
2190;DHT22;1101;51.056;7.262;2022-10-16T14:26:16;17.70;99.90
2190;DHT22;1101;51.056;7.262;2022-10-16T14:28:45;17.70;99.90
2190;DHT22;1101;51.056;7.262;2022-10-16T14:31:25;17.60;99.90
2190;DHT22;1101;51.056;7.262;2022-10-16T14:33:54;17.60;99.90
2190;DHT22;1101;51.056;7.262;2022-10-16T14:36:22;17.60;99.90
2190;DHT22;1101;51.056;7.262;2022-10-16T14:38:56;17.60;99.90
2190;DHT22;1101;51.056;7.262;2022-10-16T14:41:26;17.50;99.90
2190;DHT22;1101;51.056;7.262;2022-10-16T14:43:56;17.50;99.90
2190;DHT22;1101;51.056;7.262;2022-10-16T14:46:30;17.40;99.90
2190;DHT22;1101;51.056;7.262;2022-10-16T14:49:02;17.40;99.90
2190;DHT22;1101;51.056;7.262;2022-10-16T14:51:31;17.40;99.90
2190;DHT22;1101;51.056;7.262;2022-10-16T14:53:58;17.40;99.90
2190;DHT22;1101;51.056;7.262;2022-10-16T14:56:30;17.30;99.90
2190;DHT22;1101;51.056;7.262;2022-10-16T14:58:59;17.30;99.90
2190;DHT22;1101;51.056;7.262;2022-10-16T15:01:27;17.30;99.90
2190;DHT22;1101;51.056;7.262;2022-10-16T15:03:55;17.30;99.90
2190;DHT22;1101;51.056;7.262;2022-10-16T15:06:22;17.30;99.90
2190;DHT22;1101;51.056;7.262;2022-10-16T15:08:50;17.30;99.90
2190;DHT22;1101;51.056;7.262;2022-10-16T15:11:18;17.30;99.90
2190;DHT22;1101;51.056;7.262;2022-10-16T15:13:48;17.30;99.90
2190;DHT22;1101;51.056;7.262;2022-10-16T15:16:16;17.30;99.90
2190;DHT22;1101;51.056;7.262;2022-10-16T15:18:44;17.30;99.90
2190;DHT22;1101;51.056;7.262;2022-10-16T15:21:20;17.30;99.90
2190;DHT22;1101;51.056;7.262;2022-10-16T15:23:49;17.20;99.90
2190;DHT22;1101;51.056;7.262;2022-10-16T15:26:17;17.30;99.90
2190;DHT22;1101;51.056;7.262;2022-10-16T15:28:45;17.20;99.90
2190;DHT22;1101;51.056;7.262;2022-10-16T15:31:14;17.20;99.90
2190;DHT22;1101;51.056;7.262;2022-10-16T15:33:42;17.20;99.90
2190;DHT22;1101;51.056;7.262;2022-10-16T15:36:10;17.10;99.90
2190;DHT22;1101;51.056;7.262;2022-10-16T15:38:38;17.10;99.90
2190;DHT22;1101;51.056;7.262;2022-10-16T15:41:05;17.10;99.90
2190;DHT22;1101;51.056;7.262;2022-10-16T15:43:33;17.10;99.90
2190;DHT22;1101;51.056;7.262;2022-10-16T15:46:03;17.00;99.90
2190;DHT22;1101;51.056;7.262;2022-10-16T15:48:33;17.00;99.90
2190;DHT22;1101;51.056;7.262;2022-10-16T15:51:05;17.00;99.90
2190;DHT22;1101;51.056;7.262;2022-10-16T15:53:33;17.00;99.90
2190;DHT22;1101;51.056;7.262;2022-10-16T15:56:02;16.90;99.90
2190;DHT22;1101;51.056;7.262;2022-10-16T15:58:29;16.90;99.90
2190;DHT22;1101;51.056;7.262;2022-10-16T16:00:58;16.90;99.90
2190;DHT22;1101;51.056;7.262;2022-10-16T16:03:27;16.80;99.90
2190;DHT22;1101;51.056;7.262;2022-10-16T16:05:57;16.80;99.90
2190;DHT22;1101;51.056;7.262;2022-10-16T16:08:24;16.80;99.90
2190;DHT22;1101;51.056;7.262;2022-10-16T16:10:59;16.80;99.90
2190;DHT22;1101;51.056;7.262;2022-10-16T16:13:27;16.70;99.90
2190;DHT22;1101;51.056;7.262;2022-10-16T16:15:55;16.70;99.90
2190;DHT22;1101;51.056;7.262;2022-10-16T16:18:23;16.70;99.90
2190;DHT22;1101;51.056;7.262;2022-10-16T16:20:51;16.60;99.90
2190;DHT22;1101;51.056;7.262;2022-10-16T16:23:21;16.60;99.90
2190;DHT22;1101;51.056;7.262;2022-10-16T16:26:05;16.50;99.90
2190;DHT22;1101;51.056;7.262;2022-10-16T16:28:34;16.50;99.90
2190;DHT22;1101;51.056;7.262;2022-10-16T16:31:02;16.50;99.90
2190;DHT22;1101;51.056;7.262;2022-10-16T16:33:30;16.50;99.90